createdAt,value
2024-02-24T00:01:21.051Z,6.57
2024-02-24T00:03:47.726Z,6.47
2024-02-24T00:06:14.335Z,6.61
2024-02-24T00:08:41.214Z,6.99
2024-02-24T00:11:08.017Z,6.63
2024-02-24T00:13:34.845Z,6.68
2024-02-24T00:16:04.349Z,6.93
2024-02-24T00:18:31.134Z,6.99
2024-02-24T00:20:57.865Z,6.85
2024-02-24T00:23:24.703Z,6.78
2024-02-24T00:25:51.271Z,6.85
2024-02-24T00:28:23.822Z,6.68
2024-02-24T00:30:50.501Z,6.46
2024-02-24T00:33:25.994Z,6.84
2024-02-24T00:35:53.003Z,6.65
2024-02-24T00:38:19.639Z,6.42
2024-02-24T00:40:46.331Z,6.30
2024-02-24T00:43:15.675Z,6.22
2024-02-24T00:45:42.321Z,6.31
2024-02-24T00:48:08.949Z,6.12
2024-02-24T00:50:35.644Z,6.14
2024-02-24T00:53:02.548Z,6.06
2024-02-24T00:55:29.248Z,6.05
2024-02-24T00:57:55.906Z,6.33
2024-02-24T01:00:24.984Z,6.22
2024-02-24T01:02:54.747Z,6.19
2024-02-24T01:05:21.439Z,5.58
2024-02-24T01:07:48.109Z,5.85
2024-02-24T01:10:15.131Z,5.70
2024-02-24T01:12:41.722Z,6.02
2024-02-24T01:15:08.836Z,5.94
2024-02-24T01:17:35.604Z,5.93
2024-02-24T01:20:03.270Z,6.13
2024-02-24T01:22:35.322Z,6.25
2024-02-24T01:25:03.277Z,6.25
2024-02-24T01:27:29.899Z,6.37
2024-02-24T01:29:56.612Z,6.38
2024-02-24T01:32:23.351Z,6.67
2024-02-24T01:34:50.072Z,6.36
2024-02-24T01:37:16.695Z,6.06
2024-02-24T01:39:43.368Z,6.07
2024-02-24T01:42:10.540Z,6.27
2024-02-24T01:44:37.236Z,6.10
2024-02-24T01:47:03.990Z,5.89
2024-02-24T01:49:33.234Z,6.05
2024-02-24T01:52:03.595Z,6.03
2024-02-24T01:54:30.610Z,6.27
2024-02-24T01:56:58.176Z,6.29
2024-02-24T01:59:25.165Z,6.37
2024-02-24T02:01:51.957Z,6.25
2024-02-24T02:04:18.657Z,6.19
2024-02-24T02:06:45.342Z,6.45
2024-02-24T02:09:12.017Z,6.46
2024-02-24T02:11:48.006Z,6.51
2024-02-24T02:14:23.063Z,6.50
2024-02-24T02:16:49.753Z,6.61
2024-02-24T02:19:16.428Z,6.49
2024-02-24T02:21:43.196Z,6.56
2024-02-24T02:24:10.630Z,6.59
2024-02-24T02:26:37.244Z,6.31
2024-02-24T02:29:03.892Z,6.45
2024-02-24T02:31:30.436Z,6.20
2024-02-24T02:33:57.248Z,6.09
2024-02-24T02:36:23.896Z,6.43
2024-02-24T02:38:50.606Z,6.28
2024-02-24T02:41:17.321Z,6.43
2024-02-24T02:43:44.027Z,6.11
2024-02-24T02:46:10.595Z,5.95
2024-02-24T02:48:37.369Z,6.13
2024-02-24T02:51:04.083Z,6.08
2024-02-24T02:53:30.812Z,6.17
2024-02-24T02:55:57.426Z,6.24
2024-02-24T02:58:24.142Z,6.09
2024-02-24T03:00:50.763Z,6.08
2024-02-24T03:03:17.471Z,6.32
2024-02-24T03:05:44.838Z,6.55
2024-02-24T03:08:11.551Z,6.12
2024-02-24T03:10:38.267Z,6.20
2024-02-24T03:13:04.914Z,6.18
2024-02-24T03:15:32.113Z,6.39
2024-02-24T03:17:58.851Z,6.29
2024-02-24T03:20:25.531Z,6.27
2024-02-24T03:22:52.250Z,6.01
2024-02-24T03:25:18.832Z,5.91
2024-02-24T03:27:45.517Z,5.88
2024-02-24T03:30:12.418Z,5.97
2024-02-24T03:32:39.128Z,6.04
2024-02-24T03:35:06.224Z,6.15
2024-02-24T03:37:34.497Z,5.98
2024-02-24T03:40:01.122Z,5.70
2024-02-24T03:42:27.878Z,5.57
2024-02-24T03:44:54.534Z,5.87
2024-02-24T03:47:23.878Z,5.91
2024-02-24T03:49:50.520Z,5.75
2024-02-24T03:52:17.191Z,5.69
2024-02-24T03:54:43.837Z,5.89
2024-02-24T03:57:10.499Z,5.65
2024-02-24T03:59:37.138Z,6.18
2024-02-24T04:02:04.618Z,5.89
2024-02-24T04:04:31.304Z,5.83
2024-02-24T04:06:57.990Z,5.82
2024-02-24T04:49:53.163Z,5.58
2024-02-24T04:52:19.847Z,5.64
2024-02-24T04:54:46.738Z,5.47
2024-02-24T04:57:13.379Z,5.64
2024-02-24T04:59:40.223Z,5.82
2024-02-24T05:02:06.952Z,5.53
2024-02-24T05:04:34.165Z,5.62
2024-02-24T05:07:00.907Z,5.39
2024-02-24T05:09:27.628Z,5.40
2024-02-24T05:11:54.823Z,5.48
2024-02-24T05:14:21.479Z,5.52
2024-02-24T05:16:48.129Z,5.80
2024-02-24T05:19:14.890Z,5.51
2024-02-24T05:21:41.633Z,5.53
2024-02-24T05:24:08.453Z,5.95
2024-02-24T05:26:35.164Z,5.71
2024-02-24T05:29:04.420Z,5.59
2024-02-24T05:31:31.070Z,5.69
2024-02-24T05:33:57.970Z,5.63
2024-02-24T05:36:25.370Z,5.68
2024-02-24T05:38:51.965Z,5.13
2024-02-24T05:41:18.600Z,5.26
2024-02-24T05:43:45.296Z,5.19
2024-02-24T05:46:16.665Z,5.35
2024-02-24T05:48:43.362Z,5.48
2024-02-24T05:51:10.704Z,5.65
2024-02-24T05:53:40.131Z,5.65
2024-02-24T05:56:06.948Z,5.64
2024-02-24T05:58:33.623Z,5.79
2024-02-24T06:01:03.921Z,5.55
2024-02-24T06:03:30.799Z,5.63
2024-02-24T06:05:57.518Z,5.61
2024-02-24T06:08:24.268Z,5.71
2024-02-24T06:10:52.789Z,6.01
2024-02-24T06:13:22.616Z,5.94
2024-02-24T06:15:49.292Z,5.70
2024-02-24T06:18:17.075Z,5.83
2024-02-24T06:20:43.959Z,5.52
2024-02-24T06:23:10.595Z,5.53
2024-02-24T06:25:39.937Z,5.81
2024-02-24T06:28:13.919Z,5.72
2024-02-24T06:30:41.417Z,5.98
2024-02-24T06:33:09.003Z,5.93
2024-02-24T06:35:35.952Z,5.58
2024-02-24T06:38:02.693Z,5.99
2024-02-24T06:40:37.301Z,6.10
2024-02-24T06:43:11.668Z,6.13
2024-02-24T06:45:38.432Z,6.32
2024-02-24T06:48:05.455Z,6.43
2024-02-24T06:50:32.135Z,6.28
2024-02-24T06:52:58.793Z,6.52
2024-02-24T06:55:25.568Z,6.44
2024-02-24T06:57:55.203Z,6.36
2024-02-24T07:00:23.027Z,6.31
2024-02-24T07:02:50.543Z,6.42
2024-02-24T07:05:17.388Z,6.45
2024-02-24T07:07:44.170Z,6.51
2024-02-24T07:10:10.944Z,6.46
2024-02-24T07:12:40.867Z,6.75
2024-02-24T07:15:10.220Z,6.68
2024-02-24T07:17:36.904Z,6.55
2024-02-24T07:20:04.567Z,6.82
2024-02-24T07:22:31.238Z,6.56
2024-02-24T07:24:57.916Z,6.70
2024-02-24T07:27:24.630Z,6.29
2024-02-24T07:29:53.740Z,6.47
2024-02-24T07:32:20.758Z,6.22
2024-02-24T07:34:47.498Z,6.23
2024-02-24T07:37:14.267Z,6.50
2024-02-24T07:39:40.909Z,6.41
2024-02-24T07:42:07.870Z,6.66
2024-02-24T07:44:34.570Z,6.94
2024-02-24T07:47:02.056Z,6.71
2024-02-24T07:49:28.781Z,7.03
2024-02-24T07:51:55.509Z,6.83
2024-02-24T07:54:22.530Z,6.89
2024-02-24T07:56:49.242Z,7.29
2024-02-24T07:59:16.244Z,7.15
2024-02-24T08:01:42.997Z,7.08
2024-02-24T08:04:09.861Z,7.52
2024-02-24T08:06:36.748Z,7.15
2024-02-24T08:09:03.446Z,7.39
2024-02-24T08:11:35.941Z,7.68
2024-02-24T08:14:04.445Z,7.91
2024-02-24T08:16:31.255Z,7.91
2024-02-24T08:18:58.043Z,8.18
2024-02-24T08:21:25.263Z,7.91
2024-02-24T08:23:53.375Z,8.55
2024-02-24T08:26:20.018Z,8.11
2024-02-24T08:28:46.627Z,8.36
2024-02-24T08:31:13.244Z,9.80
2024-02-24T08:33:43.333Z,9.36
2024-02-24T08:36:10.454Z,8.53
2024-02-24T08:38:40.085Z,9.04
2024-02-24T08:41:07.120Z,8.73
2024-02-24T08:43:33.741Z,9.25
2024-02-24T08:46:00.569Z,8.92
2024-02-24T08:48:28.209Z,9.54
2024-02-24T08:50:55.213Z,9.36
2024-02-24T08:53:22.000Z,9.53
2024-02-24T08:55:48.767Z,9.40
2024-02-24T08:58:15.328Z,9.95
2024-02-24T09:00:42.159Z,11.13
2024-02-24T09:03:09.012Z,10.96
2024-02-24T09:05:36.418Z,10.56
2024-02-24T09:08:03.070Z,10.38
2024-02-24T09:10:29.754Z,10.04
2024-02-24T09:12:56.521Z,10.28
2024-02-24T09:15:23.193Z,10.21
2024-02-24T09:17:49.810Z,10.06
2024-02-24T09:20:16.594Z,10.12
2024-02-24T09:22:44.135Z,10.02
2024-02-24T09:25:17.464Z,10.47
2024-02-24T09:27:47.067Z,10.65
2024-02-24T09:30:14.275Z,10.86
2024-02-24T09:32:41.654Z,10.51
2024-02-24T09:35:09.534Z,10.33
2024-02-24T09:37:36.235Z,10.30
2024-02-24T09:40:05.259Z,10.42
2024-02-24T09:42:31.839Z,10.38
2024-02-24T09:44:59.930Z,10.53
2024-02-24T09:47:27.517Z,10.70
2024-02-24T09:49:55.145Z,11.06
2024-02-24T09:52:21.953Z,11.99
2024-02-24T09:54:48.648Z,12.67
2024-02-24T09:57:16.973Z,12.44
2024-02-24T09:59:45.329Z,12.40
2024-02-24T10:02:15.579Z,11.22
2024-02-24T10:04:43.926Z,10.68
2024-02-24T10:07:10.633Z,10.87
2024-02-24T10:09:37.892Z,11.16
2024-02-24T10:12:07.321Z,10.47
2024-02-24T10:14:34.454Z,11.08
2024-02-24T10:17:01.362Z,10.86
2024-02-24T10:19:29.351Z,11.09
2024-02-24T10:21:55.987Z,10.70
2024-02-24T10:24:22.638Z,10.87
2024-02-24T10:26:52.950Z,10.87
2024-02-24T10:29:21.496Z,10.56
2024-02-24T10:31:49.109Z,10.86
2024-02-24T10:34:15.885Z,11.04
2024-02-24T10:36:43.707Z,11.21
2024-02-24T10:39:10.905Z,11.17
2024-02-24T10:41:37.666Z,11.25
2024-02-24T10:44:18.308Z,11.32
2024-02-24T10:46:50.605Z,11.55
2024-02-24T10:49:17.425Z,11.37
2024-02-24T10:51:47.625Z,11.30
2024-02-24T10:54:17.565Z,11.47
2024-02-24T10:56:44.908Z,11.37
2024-02-24T10:59:12.823Z,12.03
2024-02-24T11:01:44.051Z,12.87
2024-02-24T11:04:12.184Z,12.26
2024-02-24T11:06:53.806Z,12.30
2024-02-24T11:09:33.306Z,13.02
2024-02-24T11:12:04.929Z,14.55
2024-02-24T11:14:32.614Z,16.71
2024-02-24T11:16:59.916Z,16.27
2024-02-24T11:19:46.195Z,15.85
2024-02-24T11:22:19.773Z,13.34
2024-02-24T11:24:49.319Z,12.54
2024-02-24T11:27:15.904Z,12.31
2024-02-24T11:29:42.716Z,12.17
2024-02-24T11:32:13.433Z,13.93
2024-02-24T11:34:45.120Z,14.02
2024-02-24T11:37:19.007Z,16.23
2024-02-24T11:39:48.300Z,16.72
2024-02-24T11:42:15.450Z,15.68
2024-02-24T11:44:49.203Z,15.22
2024-02-24T11:47:19.038Z,15.17
2024-02-24T11:49:46.761Z,16.41
2024-02-24T11:52:14.026Z,17.53
2024-02-24T11:54:41.181Z,18.51
2024-02-24T11:57:14.450Z,16.47
2024-02-24T11:59:41.801Z,17.33
2024-02-24T12:02:08.660Z,16.20
2024-02-24T12:04:35.494Z,15.57
2024-02-24T12:07:03.317Z,14.97
2024-02-24T12:09:30.407Z,14.45
2024-02-24T12:11:58.236Z,14.42
2024-02-24T12:14:27.602Z,13.69
2024-02-24T12:17:01.003Z,13.72
2024-02-24T12:19:31.253Z,13.44
2024-02-24T12:21:57.971Z,13.61
2024-02-24T12:24:28.374Z,12.96
2024-02-24T12:26:59.231Z,12.77
2024-02-24T12:29:26.018Z,13.20
2024-02-24T12:31:57.031Z,13.80
2024-02-24T12:34:25.312Z,14.21
2024-02-24T12:36:56.003Z,14.13
2024-02-24T12:39:22.688Z,13.42
2024-02-24T12:41:49.291Z,14.69
2024-02-24T12:44:16.896Z,13.95
2024-02-24T12:46:43.572Z,13.69
2024-02-24T12:49:12.823Z,15.02
2024-02-24T12:51:39.612Z,14.58
2024-02-24T12:54:06.471Z,14.41
2024-02-24T12:56:33.105Z,14.06
2024-02-24T12:59:01.521Z,14.01
2024-02-24T13:01:28.247Z,14.67
2024-02-24T13:03:55.643Z,13.34
2024-02-24T13:06:22.480Z,12.22
2024-02-24T13:08:54.983Z,12.09
2024-02-24T13:11:21.935Z,12.18
2024-02-24T13:13:48.562Z,11.80
2024-02-24T13:16:15.262Z,11.94
2024-02-24T13:18:42.074Z,12.14
2024-02-24T13:21:08.879Z,12.22
2024-02-24T13:23:35.600Z,12.52
2024-02-24T13:26:02.228Z,12.31
2024-02-24T13:28:28.825Z,12.22
2024-02-24T13:30:55.841Z,12.45
2024-02-24T13:33:22.563Z,12.57
2024-02-24T13:35:49.866Z,12.66
2024-02-24T13:38:17.881Z,13.01
2024-02-24T13:40:44.528Z,12.59
2024-02-24T13:43:15.597Z,12.17
2024-02-24T13:45:42.706Z,11.83
2024-02-24T13:48:09.509Z,11.96
2024-02-24T13:50:36.468Z,11.88
2024-02-24T13:53:06.354Z,11.65
2024-02-24T13:55:33.100Z,11.62
2024-02-24T13:58:04.141Z,11.13
2024-02-24T14:00:30.886Z,11.29
2024-02-24T14:03:02.940Z,11.20
2024-02-24T14:05:36.810Z,10.47
2024-02-24T14:08:04.895Z,10.68
2024-02-24T14:10:31.560Z,11.04
2024-02-24T14:13:01.237Z,10.56
2024-02-24T14:15:27.826Z,11.00
2024-02-24T14:18:00.458Z,11.41
2024-02-24T14:20:35.084Z,11.96
2024-02-24T14:23:04.740Z,11.62
2024-02-24T14:25:33.599Z,11.69
2024-02-24T14:28:03.512Z,12.01
2024-02-24T14:30:30.126Z,13.22
2024-02-24T14:32:56.869Z,13.25
2024-02-24T14:35:24.270Z,13.71
2024-02-24T14:37:51.028Z,13.34
2024-02-24T14:40:17.767Z,12.02
2024-02-24T14:42:45.089Z,12.22
2024-02-24T14:45:11.717Z,12.32
2024-02-24T14:47:39.038Z,11.56
2024-02-24T14:50:05.957Z,11.82
2024-02-24T14:52:39.897Z,11.61
2024-02-24T14:55:06.876Z,11.42
2024-02-24T14:57:39.577Z,11.94
2024-02-24T15:00:10.497Z,12.34
2024-02-24T15:02:48.359Z,11.50
2024-02-24T15:05:19.917Z,11.25
2024-02-24T15:07:54.103Z,11.02
2024-02-24T15:10:21.716Z,10.85
2024-02-24T15:12:48.615Z,11.09
2024-02-24T15:15:15.381Z,11.12
2024-02-24T15:17:44.977Z,11.19
2024-02-24T15:20:11.931Z,10.95
2024-02-24T15:22:38.978Z,11.08
2024-02-24T15:25:08.540Z,10.89
2024-02-24T15:27:35.209Z,11.20
2024-02-24T15:30:02.253Z,10.80
2024-02-24T15:32:29.219Z,10.75
2024-02-24T15:34:56.021Z,10.79
2024-02-24T15:37:25.690Z,10.37
2024-02-24T15:39:52.338Z,10.86
2024-02-24T15:42:21.746Z,10.55
2024-02-24T15:44:48.513Z,10.37
2024-02-24T15:47:15.146Z,10.29
2024-02-24T15:49:41.958Z,10.15
2024-02-24T15:52:08.611Z,10.13
2024-02-24T15:54:35.906Z,10.50
2024-02-24T15:57:02.718Z,10.50
2024-02-24T15:59:29.585Z,10.25
2024-02-24T16:01:56.288Z,10.34
2024-02-24T16:04:22.983Z,10.08
2024-02-24T16:06:49.764Z,10.13
2024-02-24T16:09:16.445Z,9.91
2024-02-24T16:11:43.140Z,10.18
2024-02-24T16:14:12.354Z,9.97
2024-02-24T16:16:39.949Z,9.97
2024-02-24T16:19:09.824Z,9.84
2024-02-24T16:21:41.626Z,9.97
2024-02-24T16:24:10.691Z,9.79
2024-02-24T16:26:37.370Z,9.68
2024-02-24T16:29:09.075Z,9.74
2024-02-24T16:31:35.724Z,9.74
2024-02-24T16:34:02.577Z,9.77
2024-02-24T16:36:29.403Z,9.64
2024-02-24T16:38:57.113Z,9.79
2024-02-24T16:41:24.413Z,9.71
2024-02-24T16:43:51.062Z,9.58
2024-02-24T16:46:17.734Z,9.41
2024-02-24T16:48:45.311Z,9.71
2024-02-24T16:51:12.182Z,9.26
2024-02-24T16:53:38.936Z,9.47
2024-02-24T16:56:05.927Z,9.48
2024-02-24T16:58:32.668Z,9.53
2024-02-24T17:00:59.709Z,9.50
2024-02-24T17:03:28.065Z,9.73
2024-02-24T17:05:55.065Z,9.43
2024-02-24T17:08:24.206Z,9.35
2024-02-24T17:10:52.050Z,9.48
2024-02-24T17:13:18.708Z,9.22
2024-02-24T17:15:45.492Z,9.42
2024-02-24T17:18:18.326Z,9.29
2024-02-24T17:20:48.155Z,9.40
2024-02-24T17:23:15.544Z,9.14
2024-02-24T17:25:42.491Z,9.01
2024-02-24T17:28:10.362Z,8.99
2024-02-24T17:30:37.245Z,9.19
2024-02-24T17:33:07.401Z,9.00
2024-02-24T17:35:35.664Z,8.96
2024-02-24T17:38:03.754Z,8.91
2024-02-24T17:40:30.525Z,8.90
2024-02-24T17:42:58.474Z,8.82
2024-02-24T17:45:27.478Z,9.05
2024-02-24T17:47:54.152Z,8.94
2024-02-24T17:50:20.942Z,9.03
2024-02-24T17:52:47.623Z,9.17
2024-02-24T17:55:16.225Z,8.90
2024-02-24T17:57:44.865Z,8.70
2024-02-24T18:00:12.037Z,8.67
2024-02-24T18:02:40.167Z,8.74
2024-02-24T18:05:07.177Z,8.67
2024-02-24T18:07:33.832Z,8.65
2024-02-24T18:10:00.613Z,8.51
2024-02-24T18:12:36.699Z,8.34
2024-02-24T18:15:04.118Z,8.30
2024-02-24T18:17:30.748Z,8.22
2024-02-24T18:19:57.400Z,8.26
2024-02-24T18:22:24.207Z,8.12
2024-02-24T18:24:51.518Z,8.00
2024-02-24T18:27:18.150Z,8.06
2024-02-24T18:29:47.951Z,8.31
2024-02-24T18:32:14.720Z,8.08
2024-02-24T18:34:41.790Z,7.78
2024-02-24T18:37:08.553Z,7.84
2024-02-24T18:39:35.446Z,7.91
2024-02-24T18:42:02.151Z,7.98
2024-02-24T18:44:31.083Z,7.93
2024-02-24T18:46:58.072Z,7.74
2024-02-24T18:49:29.057Z,7.73
2024-02-24T18:51:59.622Z,7.65
2024-02-24T18:54:27.705Z,7.71
2024-02-24T18:56:54.676Z,7.74
2024-02-24T18:59:23.645Z,7.65
2024-02-24T19:01:50.327Z,7.85
2024-02-24T19:04:24.711Z,7.47
2024-02-24T19:06:57.718Z,7.71
2024-02-24T19:09:25.101Z,7.73
2024-02-24T19:11:54.103Z,7.71
2024-02-24T19:14:21.335Z,7.91
2024-02-24T19:16:51.288Z,8.02
2024-02-24T19:19:18.044Z,7.89
2024-02-24T19:21:46.217Z,7.94
2024-02-24T19:24:13.252Z,7.88
2024-02-24T19:26:40.685Z,7.92
2024-02-24T19:29:07.801Z,7.85
2024-02-24T19:31:34.849Z,7.75
2024-02-24T19:34:01.839Z,7.79
2024-02-24T19:36:29.278Z,7.54
2024-02-24T19:39:10.744Z,7.93
2024-02-24T19:41:45.176Z,7.79
2024-02-24T19:44:11.830Z,7.79
2024-02-24T19:46:41.192Z,7.89
2024-02-24T19:49:09.942Z,7.62
2024-02-24T19:51:37.587Z,7.49
2024-02-24T19:54:06.649Z,7.71
2024-02-24T19:56:33.478Z,7.55
2024-02-24T19:59:00.109Z,7.67
2024-02-24T20:01:27.034Z,7.75
2024-02-24T20:03:53.793Z,7.88
2024-02-24T20:06:20.736Z,7.82
2024-02-24T20:08:47.554Z,7.78
2024-02-24T20:11:14.438Z,7.87
2024-02-24T20:13:46.489Z,7.64
2024-02-24T20:16:13.819Z,7.74
2024-02-24T20:18:40.823Z,8.00
2024-02-24T20:21:07.697Z,7.55
2024-02-24T20:23:34.339Z,7.77
2024-02-24T20:26:03.464Z,7.81
2024-02-24T20:28:30.285Z,7.90
2024-02-24T20:30:57.000Z,7.62
2024-02-24T20:33:23.802Z,7.47
2024-02-24T20:35:52.971Z,7.65
2024-02-24T20:38:19.926Z,7.57
2024-02-24T20:40:47.895Z,7.53
2024-02-24T20:43:14.703Z,7.65
2024-02-24T20:45:41.346Z,7.51
2024-02-24T20:48:10.640Z,7.51
2024-02-24T20:50:37.482Z,7.37
2024-02-24T20:53:05.164Z,7.59
2024-02-24T20:55:31.775Z,7.52
2024-02-24T20:57:58.350Z,7.70
2024-02-24T21:00:36.757Z,7.54
2024-02-24T21:03:03.620Z,7.52
2024-02-24T21:05:30.436Z,7.62
2024-02-24T21:07:57.151Z,7.68
2024-02-24T21:10:24.768Z,7.77
2024-02-24T21:12:51.420Z,7.79
2024-02-24T21:15:18.021Z,7.58
2024-02-24T21:17:47.460Z,7.75
2024-02-24T21:20:14.086Z,7.85
2024-02-24T21:22:42.055Z,7.84
2024-02-24T21:25:13.451Z,7.70
2024-02-24T21:27:44.153Z,7.62
2024-02-24T21:30:13.657Z,7.59
2024-02-24T21:32:41.119Z,7.47
2024-02-24T21:35:08.814Z,7.62
2024-02-24T21:37:35.358Z,7.62
2024-02-24T21:40:02.029Z,7.79
2024-02-24T21:42:28.630Z,7.40
2024-02-24T21:45:20.544Z,7.69
2024-02-24T21:47:47.263Z,7.28
2024-02-24T21:50:14.068Z,7.61
2024-02-24T21:52:40.798Z,7.45
2024-02-24T21:55:07.482Z,7.56
2024-02-24T21:57:34.150Z,7.42
2024-02-24T22:00:01.097Z,7.47
2024-02-24T22:02:27.950Z,7.65
2024-02-24T22:04:55.236Z,7.72
2024-02-24T22:07:23.836Z,7.39
2024-02-24T22:09:51.144Z,7.25
2024-02-24T22:12:17.954Z,7.35
2024-02-24T22:14:45.217Z,7.35
2024-02-24T22:17:12.393Z,7.28
2024-02-24T22:19:39.343Z,7.28
2024-02-24T22:22:06.284Z,7.47
2024-02-24T22:24:33.053Z,7.53
2024-02-24T22:26:59.917Z,7.56
2024-02-24T22:29:26.715Z,7.38
2024-02-24T22:31:54.233Z,7.43
2024-02-24T22:34:21.062Z,7.18
2024-02-24T22:36:47.875Z,7.28
2024-02-24T22:39:14.874Z,6.93
2024-02-24T22:41:41.605Z,6.76
2024-02-24T22:44:11.060Z,6.79
2024-02-24T22:46:40.021Z,7.17
2024-02-24T22:49:06.826Z,7.37
2024-02-24T22:51:35.048Z,7.26
2024-02-24T22:54:01.807Z,7.28
2024-02-24T22:56:33.567Z,7.42
2024-02-24T22:59:02.312Z,7.31
2024-02-24T23:01:32.086Z,7.36
2024-02-24T23:03:59.425Z,7.35
2024-02-24T23:06:26.311Z,7.42
2024-02-24T23:08:53.153Z,7.38
2024-02-24T23:11:29.399Z,7.13
2024-02-24T23:14:06.053Z,7.18
2024-02-24T23:16:32.684Z,7.24
2024-02-24T23:18:59.998Z,7.25
2024-02-24T23:21:30.393Z,7.26
2024-02-24T23:23:57.731Z,7.27
2024-02-24T23:26:24.671Z,7.26
2024-02-24T23:28:51.331Z,7.19
2024-02-24T23:31:17.960Z,7.04
2024-02-24T23:33:44.881Z,7.03
2024-02-24T23:36:11.870Z,7.22
2024-02-24T23:38:38.615Z,6.99
2024-02-24T23:41:05.385Z,7.19
2024-02-24T23:43:32.023Z,6.77
2024-02-24T23:45:58.807Z,6.94
2024-02-24T23:48:25.608Z,6.90
2024-02-24T23:50:54.966Z,7.02
2024-02-24T23:53:21.662Z,6.76
2024-02-24T23:55:48.302Z,6.96
2024-02-24T23:58:15.021Z,6.72
